createdAt,value
2022-12-18T00:00:02.748Z,100873.45
2022-12-18T00:00:12.744Z,100867.96
2022-12-18T00:00:22.714Z,100867.56
2022-12-18T00:00:32.739Z,100864.94
2022-12-18T00:00:42.777Z,100873.46
2022-12-18T00:00:52.816Z,100867.95
2022-12-18T00:01:02.792Z,100867.59
2022-12-18T00:01:12.699Z,100860.77
2022-12-18T00:01:22.825Z,100862.34
2022-12-18T00:01:32.901Z,100863.77
2022-12-18T00:01:42.863Z,100860.16
2022-12-18T00:01:52.864Z,100862.38
2022-12-18T00:02:02.846Z,100862.97
2022-12-18T00:02:12.693Z,100864.39
2022-12-18T00:02:22.707Z,100861.92
2022-12-18T00:02:32.972Z,100868.78
2022-12-18T00:02:42.893Z,100864.56
2022-12-18T00:02:52.845Z,100867.75
2022-12-18T00:03:02.876Z,100866.53
2022-12-18T00:03:12.899Z,100867.02
2022-12-18T00:03:22.844Z,100864.08
2022-12-18T00:03:32.889Z,100863.21
2022-12-18T00:03:43.146Z,100866.08
2022-12-18T00:03:52.882Z,100863.95
2022-12-18T00:04:02.904Z,100865.54
2022-12-18T00:04:12.950Z,100865.17
2022-12-18T00:04:22.957Z,100864.49
2022-12-18T00:04:32.816Z,100868.00
2022-12-18T00:04:42.818Z,100867.50
2022-12-18T00:04:52.703Z,100870.07
2022-12-18T00:05:02.767Z,100868.89
2022-12-18T00:05:12.792Z,100865.62
2022-12-18T00:05:22.767Z,100867.25
2022-12-18T00:05:32.683Z,100867.03
2022-12-18T00:05:42.811Z,100868.62
2022-12-18T00:05:52.740Z,100868.23
2022-12-18T00:06:02.716Z,100870.48
2022-12-18T00:06:12.733Z,100868.48
2022-12-18T00:06:22.802Z,100873.34
2022-12-18T00:06:32.800Z,100875.73
2022-12-18T00:06:42.803Z,100872.48
2022-12-18T00:06:52.703Z,100875.51
2022-12-18T00:07:02.709Z,100875.33
2022-12-18T00:07:12.699Z,100878.69
2022-12-18T00:07:22.760Z,100878.50
2022-12-18T00:07:32.814Z,100877.98
2022-12-18T00:07:42.728Z,100877.47
2022-12-18T00:07:52.805Z,100878.74
2022-12-18T00:08:02.704Z,100878.26
2022-12-18T00:08:12.750Z,100876.97
2022-12-18T00:08:22.717Z,100880.48
2022-12-18T00:08:32.698Z,100879.48
2022-12-18T00:08:42.784Z,100880.46
2022-12-18T00:08:52.789Z,100881.92
2022-12-18T00:09:02.734Z,100877.99
2022-12-18T00:09:12.717Z,100877.69
2022-12-18T00:09:22.806Z,100881.88
2022-12-18T00:09:40.302Z,100878.33
2022-12-18T00:09:42.815Z,100881.38
2022-12-18T00:09:52.778Z,100886.02
2022-12-18T00:10:02.767Z,100883.44
2022-12-18T00:10:15.210Z,100886.52
2022-12-18T00:10:22.729Z,100883.40
2022-12-18T00:10:32.751Z,100883.23
2022-12-18T00:10:42.750Z,100881.57
2022-12-18T00:10:52.704Z,100882.70
2022-12-18T00:11:02.719Z,100886.22
2022-12-18T00:11:12.805Z,100880.41
2022-12-18T00:11:22.751Z,100883.44
2022-12-18T00:11:32.706Z,100877.24
2022-12-18T00:11:42.780Z,100878.86
2022-12-18T00:11:52.801Z,100881.94
2022-12-18T00:12:22.743Z,100877.99
2022-12-18T00:12:32.801Z,100878.16
2022-12-18T00:12:42.735Z,100875.23
2022-12-18T00:12:52.727Z,100875.18
2022-12-18T00:13:06.604Z,100878.73
2022-12-18T00:13:12.813Z,100877.23
2022-12-18T00:13:22.695Z,100872.57
2022-12-18T00:13:32.732Z,100873.70
2022-12-18T00:13:42.977Z,100877.40
2022-12-18T00:13:52.824Z,100879.14
2022-12-18T00:14:02.761Z,100874.94
2022-12-18T00:14:12.763Z,100876.39
2022-12-18T00:14:22.795Z,100872.67
2022-12-18T00:14:32.804Z,100872.02
2022-12-18T00:14:42.790Z,100879.59
2022-12-18T00:14:52.737Z,100873.64
2022-12-18T00:15:02.818Z,100871.84
2022-12-18T00:15:12.791Z,100875.33
2022-12-18T00:15:22.753Z,100880.34
2022-12-18T00:15:32.738Z,100874.36
2022-12-18T00:15:42.817Z,100876.63
2022-12-18T00:15:52.822Z,100877.52
2022-12-18T00:16:02.826Z,100875.13
2022-12-18T00:16:12.804Z,100875.12
2022-12-18T00:16:22.880Z,100873.20
2022-12-18T00:16:32.752Z,100878.64
2022-12-18T00:16:42.790Z,100875.58
2022-12-18T00:16:52.748Z,100872.50
2022-12-18T00:17:02.705Z,100874.11
2022-12-18T00:17:12.779Z,100872.34
2022-12-18T00:17:22.787Z,100872.82
2022-12-18T00:17:32.711Z,100879.09
2022-12-18T00:17:42.742Z,100871.97
2022-12-18T00:17:52.777Z,100873.59
2022-12-18T00:18:02.706Z,100873.11
2022-12-18T00:18:16.094Z,100876.69
2022-12-18T00:18:22.729Z,100876.23
2022-12-18T00:18:32.814Z,100873.47
2022-12-18T00:18:42.806Z,100871.19
2022-12-18T00:18:52.728Z,100872.64
2022-12-18T00:19:02.808Z,100872.20
2022-12-18T00:19:12.807Z,100872.82
2022-12-18T00:19:22.813Z,100872.97
2022-12-18T00:19:32.832Z,100869.27
2022-12-18T00:19:42.751Z,100868.92
2022-12-18T00:19:52.805Z,100873.45
2022-12-18T00:20:02.802Z,100873.12
2022-12-18T00:20:12.752Z,100874.89
2022-12-18T00:20:22.785Z,100869.39
2022-12-18T00:20:32.731Z,100874.38
2022-12-18T00:20:42.801Z,100868.88
2022-12-18T00:20:52.819Z,100870.63
2022-12-18T00:21:02.791Z,100873.88
2022-12-18T00:21:12.735Z,100873.05
2022-12-18T00:21:22.775Z,100872.58
2022-12-18T00:21:32.739Z,100870.13
2022-12-18T00:21:42.809Z,100871.77
2022-12-18T00:21:52.735Z,100871.28
2022-12-18T00:22:02.738Z,100867.45
2022-12-18T00:22:12.821Z,100871.00
2022-12-18T00:22:22.692Z,100868.91
2022-12-18T00:22:32.791Z,100871.51
2022-12-18T00:22:42.746Z,100871.05
2022-12-18T00:22:52.783Z,100866.36
2022-12-18T00:23:02.802Z,100871.05
2022-12-18T00:23:12.686Z,100869.48
2022-12-18T00:23:22.812Z,100869.51
2022-12-18T00:23:32.749Z,100868.91
2022-12-18T00:23:43.220Z,100866.68
2022-12-18T00:23:52.706Z,100869.15
2022-12-18T00:24:02.755Z,100867.57
2022-12-18T00:24:12.769Z,100870.21
2022-12-18T00:24:22.700Z,100868.12
2022-12-18T00:24:32.732Z,100864.47
2022-12-18T00:24:42.719Z,100871.14
2022-12-18T00:24:52.708Z,100874.72
2022-12-18T00:25:02.780Z,100872.70
2022-12-18T00:25:12.789Z,100875.96
2022-12-18T00:25:22.752Z,100872.94
2022-12-18T00:25:32.733Z,100873.95
2022-12-18T00:25:42.758Z,100877.07
2022-12-18T00:25:52.788Z,100873.05
2022-12-18T00:26:02.784Z,100872.58
2022-12-18T00:26:12.728Z,100871.79
2022-12-18T00:26:22.805Z,100871.12
2022-12-18T00:26:32.699Z,100873.91
2022-12-18T00:26:42.725Z,100872.44
2022-12-18T00:26:52.695Z,100872.83
2022-12-18T00:27:02.721Z,100872.30
2022-12-18T00:27:12.768Z,100867.97
2022-12-18T00:27:22.770Z,100866.05
2022-12-18T00:27:32.812Z,100869.62
2022-12-18T00:27:42.751Z,100867.58
2022-12-18T00:27:52.728Z,100873.09
2022-12-18T00:28:02.688Z,100871.55
2022-12-18T00:28:12.725Z,100868.54
2022-12-18T00:28:22.786Z,100871.32
2022-12-18T00:28:32.806Z,100870.92
2022-12-18T00:28:42.753Z,100870.59
2022-12-18T00:28:52.712Z,100872.44
2022-12-18T00:29:02.714Z,100870.53
2022-12-18T00:29:12.761Z,100872.67
2022-12-18T00:29:22.700Z,100873.00
2022-12-18T00:29:32.726Z,100873.98
2022-12-18T00:29:42.701Z,100873.22
2022-12-18T00:29:52.763Z,100875.50
2022-12-18T00:30:02.761Z,100872.11
2022-12-18T00:30:12.794Z,100873.54
2022-12-18T00:30:22.750Z,100873.88
2022-12-18T00:30:32.712Z,100872.73
2022-12-18T00:30:42.736Z,100874.35
2022-12-18T00:30:52.810Z,100872.88
2022-12-18T00:31:02.817Z,100870.80
2022-12-18T00:31:12.749Z,100870.12
2022-12-18T00:31:22.898Z,100872.90
2022-12-18T00:31:32.849Z,100872.69
2022-12-18T00:31:42.838Z,100873.80
2022-12-18T00:31:52.814Z,100876.73
2022-12-18T00:32:02.824Z,100868.63
2022-12-18T00:32:12.760Z,100868.31
2022-12-18T00:32:22.762Z,100872.17
2022-12-18T00:32:32.764Z,100866.67
2022-12-18T00:32:42.748Z,100879.89
2022-12-18T00:32:52.726Z,100874.71
2022-12-18T00:33:02.742Z,100870.39
2022-12-18T00:33:12.722Z,100872.29
2022-12-18T00:33:22.811Z,100874.23
2022-12-18T00:33:32.814Z,100874.06
2022-12-18T00:33:42.964Z,100875.20
2022-12-18T00:33:53.962Z,100873.41
2022-12-18T00:34:02.762Z,100872.91
2022-12-18T00:34:12.795Z,100871.77
2022-12-18T00:34:22.775Z,100871.72
2022-12-18T00:34:32.747Z,100873.33
2022-12-18T00:34:42.802Z,100874.07
2022-12-18T00:34:52.729Z,100873.70
2022-12-18T00:35:02.741Z,100876.77
2022-12-18T00:35:12.706Z,100875.11
2022-12-18T00:35:22.719Z,100875.56
2022-12-18T00:35:32.815Z,100872.78
2022-12-18T00:35:42.694Z,100869.08
2022-12-18T00:35:52.817Z,100873.85
2022-12-18T00:36:02.690Z,100868.66
2022-12-18T00:36:12.780Z,100872.98
2022-12-18T00:36:22.724Z,100872.02
2022-12-18T00:36:32.799Z,100869.75
2022-12-18T00:36:42.745Z,100874.88
2022-12-18T00:36:52.724Z,100872.98
2022-12-18T00:37:02.743Z,100871.73
2022-12-18T00:37:18.279Z,100868.05
2022-12-18T00:37:22.753Z,100872.72
2022-12-18T00:37:32.720Z,100871.61
2022-12-18T00:37:42.695Z,100876.14
2022-12-18T00:37:52.787Z,100870.02
2022-12-18T00:38:02.750Z,100868.09
2022-12-18T00:38:12.765Z,100873.26
2022-12-18T00:38:22.758Z,100868.09
2022-12-18T00:38:32.696Z,100872.50
2022-12-18T00:38:42.802Z,100873.77
2022-12-18T00:38:52.713Z,100873.14
2022-12-18T00:39:02.706Z,100870.86
2022-12-18T00:39:12.807Z,100871.19
2022-12-18T00:39:22.811Z,100874.28
2022-12-18T00:39:32.803Z,100872.33
2022-12-18T00:39:42.714Z,100873.62
2022-12-18T00:39:52.757Z,100872.94
2022-12-18T00:40:02.747Z,100869.38
2022-12-18T00:40:12.780Z,100876.03
2022-12-18T00:40:22.725Z,100872.11
2022-12-18T00:40:32.695Z,100871.19
2022-12-18T00:40:42.802Z,100868.30
2022-12-18T00:40:52.800Z,100875.23
2022-12-18T00:41:02.689Z,100871.69
2022-12-18T00:41:12.727Z,100870.09
2022-12-18T00:41:22.684Z,100870.91
2022-12-18T00:41:32.789Z,100871.72
2022-12-18T00:41:42.758Z,100868.97
2022-12-18T00:41:52.734Z,100867.08
2022-12-18T00:42:02.739Z,100873.34
2022-12-18T00:42:12.701Z,100873.02
2022-12-18T00:42:22.712Z,100872.53
2022-12-18T00:42:32.697Z,100869.14
2022-12-18T00:42:42.695Z,100867.84
2022-12-18T00:42:52.722Z,100869.93
2022-12-18T00:43:02.732Z,100870.91
2022-12-18T00:43:12.756Z,100873.47
2022-12-18T00:43:22.847Z,100871.55
2022-12-18T00:43:32.715Z,100874.12
2022-12-18T00:43:42.963Z,100874.16
2022-12-18T00:43:52.704Z,100874.44
2022-12-18T00:44:02.814Z,100874.44
2022-12-18T00:44:12.727Z,100872.20
2022-12-18T00:44:22.817Z,100874.45
2022-12-18T00:44:32.719Z,100870.58
2022-12-18T00:44:42.801Z,100874.28
2022-12-18T00:44:52.797Z,100871.25
2022-12-18T00:45:06.411Z,100873.31
2022-12-18T00:45:13.380Z,100870.56
2022-12-18T00:45:22.757Z,100867.99
2022-12-18T00:45:33.005Z,100877.35
2022-12-18T00:45:42.750Z,100874.11
2022-12-18T00:45:52.872Z,100874.98
2022-12-18T00:46:02.785Z,100874.38
2022-12-18T00:46:12.784Z,100873.09
2022-12-18T00:46:22.711Z,100875.45
2022-12-18T00:46:32.808Z,100869.30
2022-12-18T00:46:42.719Z,100872.25
2022-12-18T00:46:52.711Z,100867.58
2022-12-18T00:47:02.706Z,100871.62
2022-12-18T00:47:12.715Z,100871.77
2022-12-18T00:47:22.728Z,100872.75
2022-12-18T00:47:32.778Z,100870.67
2022-12-18T00:47:42.723Z,100868.15
2022-12-18T00:47:52.692Z,100870.39
2022-12-18T00:48:02.776Z,100870.06
2022-12-18T00:48:12.783Z,100869.44
2022-12-18T00:48:22.773Z,100869.30
2022-12-18T00:48:32.791Z,100871.08
2022-12-18T00:48:42.722Z,100872.73
2022-12-18T00:48:52.693Z,100872.25
2022-12-18T00:49:02.754Z,100870.47
2022-12-18T00:49:12.799Z,100871.76
2022-12-18T00:49:22.687Z,100872.56
2022-12-18T00:49:32.794Z,100869.53
2022-12-18T00:49:42.720Z,100872.12
2022-12-18T00:49:52.773Z,100874.05
2022-12-18T00:50:02.769Z,100870.19
2022-12-18T00:50:12.812Z,100866.81
2022-12-18T00:50:22.806Z,100867.62
2022-12-18T00:50:32.688Z,100870.38
2022-12-18T00:50:42.691Z,100870.08
2022-12-18T00:50:52.687Z,100869.45
2022-12-18T00:51:02.802Z,100871.23
2022-12-18T00:51:12.716Z,100869.45
2022-12-18T00:51:22.804Z,100866.55
2022-12-18T00:51:32.688Z,100860.45
2022-12-18T00:51:42.712Z,100867.36
2022-12-18T00:51:52.760Z,100867.34
2022-12-18T00:52:02.805Z,100870.27
2022-12-18T00:52:12.765Z,100869.59
2022-12-18T00:52:22.739Z,100868.62
2022-12-18T00:52:32.744Z,100868.28
2022-12-18T00:52:42.725Z,100866.84
2022-12-18T00:52:52.798Z,100871.38
2022-12-18T00:53:02.805Z,100873.48
2022-12-18T00:53:12.821Z,100872.04
2022-12-18T00:53:22.718Z,100871.41
2022-12-18T00:53:32.712Z,100871.55
2022-12-18T00:53:42.728Z,100872.69
2022-12-18T00:53:52.780Z,100868.48
2022-12-18T00:54:02.776Z,100871.39
2022-12-18T00:54:12.775Z,100870.73
2022-12-18T00:54:22.760Z,100871.04
2022-12-18T00:54:32.778Z,100874.92
2022-12-18T00:54:42.759Z,100869.40
2022-12-18T00:54:52.758Z,100870.66
2022-12-18T00:55:06.225Z,100872.55
2022-12-18T00:55:12.721Z,100875.59
2022-12-18T00:55:22.802Z,100873.60
2022-12-18T00:55:32.804Z,100872.59
2022-12-18T00:55:42.797Z,100871.23
2022-12-18T00:55:52.747Z,100876.52
2022-12-18T00:56:02.771Z,100878.22
2022-12-18T00:56:12.800Z,100870.91
2022-12-18T00:56:22.700Z,100872.76
2022-12-18T00:56:32.803Z,100876.41
2022-12-18T00:56:49.295Z,100877.50
2022-12-18T00:56:52.747Z,100878.62
2022-12-18T00:57:02.743Z,100878.12
2022-12-18T00:57:12.711Z,100877.22
2022-12-18T00:57:22.784Z,100875.10
2022-12-18T00:57:32.787Z,100881.69
2022-12-18T00:57:42.784Z,100878.75
2022-12-18T00:57:52.803Z,100874.83
2022-12-18T00:58:02.732Z,100879.31
2022-12-18T00:58:12.772Z,100871.36
2022-12-18T00:58:22.723Z,100876.80
2022-12-18T00:58:32.725Z,100873.87
2022-12-18T00:58:42.770Z,100870.29
2022-12-18T00:58:52.815Z,100873.80
2022-12-18T00:59:02.781Z,100874.73
2022-12-18T00:59:12.756Z,100874.34
2022-12-18T00:59:22.813Z,100874.95
2022-12-18T00:59:32.703Z,100878.31
2022-12-18T00:59:42.788Z,100875.53
2022-12-18T00:59:52.819Z,100876.61
2022-12-18T01:00:02.815Z,100877.72
2022-12-18T01:00:12.698Z,100870.72
2022-12-18T01:00:22.734Z,100874.61
2022-12-18T01:00:32.838Z,100872.16
2022-12-18T01:00:42.921Z,100871.33
2022-12-18T01:00:52.838Z,100874.19
2022-12-18T01:01:02.786Z,100872.58
2022-12-18T01:01:12.757Z,100872.70
2022-12-18T01:01:22.869Z,100873.46
2022-12-18T01:01:32.933Z,100874.20
2022-12-18T01:01:42.916Z,100872.08
2022-12-18T01:01:53.062Z,100869.31
2022-12-18T01:02:02.909Z,100872.85
2022-12-18T01:02:12.906Z,100872.78
2022-12-18T01:02:22.897Z,100874.22
2022-12-18T01:02:32.936Z,100873.69
2022-12-18T01:02:42.958Z,100876.11
2022-12-18T01:02:52.957Z,100872.39
2022-12-18T01:03:02.937Z,100871.41
2022-12-18T01:03:12.861Z,100876.08
2022-12-18T01:03:22.694Z,100873.47
2022-12-18T01:03:32.788Z,100872.80
2022-12-18T01:03:42.849Z,100873.08
2022-12-18T01:03:52.808Z,100874.02
2022-12-18T01:04:02.772Z,100873.03
2022-12-18T01:04:12.749Z,100877.50
2022-12-18T01:04:22.712Z,100874.91
2022-12-18T01:04:32.731Z,100873.43
2022-12-18T01:04:42.745Z,100870.52
2022-12-18T01:04:52.796Z,100876.81
2022-12-18T01:05:02.694Z,100872.11
2022-12-18T01:05:12.710Z,100879.22
2022-12-18T01:05:22.705Z,100879.86
2022-12-18T01:05:32.735Z,100874.69
2022-12-18T01:05:42.714Z,100877.27
2022-12-18T01:05:52.819Z,100877.88
2022-12-18T01:06:02.757Z,100881.58
2022-12-18T01:06:12.740Z,100877.69
2022-12-18T01:06:22.728Z,100876.39
2022-12-18T01:06:32.778Z,100878.80
2022-12-18T01:06:42.791Z,100882.48
2022-12-18T01:06:52.699Z,100880.86
2022-12-18T01:07:02.769Z,100882.00
2022-12-18T01:07:12.705Z,100879.88
2022-12-18T01:07:22.801Z,100883.73
2022-12-18T01:07:32.693Z,100877.28
2022-12-18T01:07:42.735Z,100882.39
2022-12-18T01:07:52.784Z,100878.72
2022-12-18T01:08:02.736Z,100885.49
2022-12-18T01:08:12.730Z,100888.71
2022-12-18T01:08:22.740Z,100889.86
2022-12-18T01:08:32.734Z,100879.52
2022-12-18T01:08:42.770Z,100885.67
2022-12-18T01:08:52.778Z,100881.95
2022-12-18T01:09:02.781Z,100880.02
2022-12-18T01:09:12.718Z,100881.12
2022-12-18T01:09:22.821Z,100883.04
2022-12-18T01:09:32.751Z,100884.34
2022-12-18T01:09:42.691Z,100887.08
2022-12-18T01:09:52.794Z,100880.91
2022-12-18T01:10:02.695Z,100880.29
2022-12-18T01:10:12.783Z,100883.05
2022-12-18T01:10:22.741Z,100880.73
2022-12-18T01:10:32.769Z,100879.44
2022-12-18T01:10:42.796Z,100885.59
2022-12-18T01:10:52.796Z,100887.02
2022-12-18T01:11:02.783Z,100882.33
2022-12-18T01:11:12.749Z,100881.98
2022-12-18T01:11:22.713Z,100885.38
2022-12-18T01:11:32.711Z,100882.14
2022-12-18T01:11:42.827Z,100879.44
2022-12-18T01:11:52.781Z,100883.25
2022-12-18T01:12:02.803Z,100886.68
2022-12-18T01:12:12.761Z,100881.98
2022-12-18T01:12:22.737Z,100882.47
2022-12-18T01:12:32.771Z,100883.39
2022-12-18T01:12:42.692Z,100886.66
2022-12-18T01:12:52.803Z,100882.36
2022-12-18T01:13:02.718Z,100881.09
2022-12-18T01:13:12.750Z,100880.12
2022-12-18T01:13:22.724Z,100880.52
2022-12-18T01:13:32.832Z,100882.32
2022-12-18T01:13:42.749Z,100880.75
2022-12-18T01:13:52.710Z,100878.64
2022-12-18T01:14:02.768Z,100885.30
2022-12-18T01:14:12.802Z,100880.44
2022-12-18T01:14:22.817Z,100879.36
2022-12-18T01:14:32.728Z,100881.50
2022-12-18T01:14:42.757Z,100879.91
2022-12-18T01:14:52.700Z,100877.87
2022-12-18T01:15:02.783Z,100877.70
2022-12-18T01:15:12.810Z,100881.94
2022-12-18T01:15:22.834Z,100878.38
2022-12-18T01:15:32.823Z,100880.82
2022-12-18T01:15:42.798Z,100880.84
2022-12-18T01:15:52.700Z,100880.52
2022-12-18T01:16:02.856Z,100879.27
2022-12-18T01:16:12.859Z,100878.83
2022-12-18T01:16:22.760Z,100877.88
2022-12-18T01:16:32.842Z,100885.66
2022-12-18T01:16:42.886Z,100877.64
2022-12-18T01:16:52.774Z,100882.47
2022-12-18T01:17:02.785Z,100882.52
2022-12-18T01:17:12.763Z,100888.50
2022-12-18T01:17:22.795Z,100883.20
2022-12-18T01:17:32.827Z,100881.93
2022-12-18T01:17:42.794Z,100882.72
2022-12-18T01:17:52.724Z,100882.28
2022-12-18T01:18:02.790Z,100886.77
2022-12-18T01:18:12.717Z,100888.06
2022-12-18T01:18:22.740Z,100886.30
2022-12-18T01:18:32.781Z,100886.16
2022-12-18T01:18:42.794Z,100883.08
2022-12-18T01:18:52.703Z,100890.20
2022-12-18T01:19:02.835Z,100887.55
2022-12-18T01:19:12.751Z,100891.28
2022-12-18T01:19:22.694Z,100891.16
2022-12-18T01:19:32.721Z,100890.91
2022-12-18T01:19:42.807Z,100893.58
2022-12-18T01:19:52.691Z,100891.36
2022-12-18T01:20:02.701Z,100894.86
2022-12-18T01:20:12.736Z,100895.04
2022-12-18T01:20:22.722Z,100898.62
2022-12-18T01:20:32.810Z,100900.27
2022-12-18T01:20:42.815Z,100903.19
2022-12-18T01:20:52.682Z,100900.30
2022-12-18T01:21:02.700Z,100898.86
2022-12-18T01:21:12.702Z,100903.05
2022-12-18T01:21:22.778Z,100901.80
2022-12-18T01:21:32.792Z,100905.51
2022-12-18T01:21:42.819Z,100902.14
2022-12-18T01:21:52.752Z,100904.42
2022-12-18T01:22:02.684Z,100903.47
2022-12-18T01:22:12.774Z,100908.95
2022-12-18T01:22:22.715Z,100904.92
2022-12-18T01:22:32.699Z,100903.34
2022-12-18T01:22:42.823Z,100903.00
2022-12-18T01:22:52.738Z,100904.73
2022-12-18T01:23:02.713Z,100906.38
2022-12-18T01:23:12.702Z,100903.15
2022-12-18T01:23:22.686Z,100904.91
2022-12-18T01:23:32.708Z,100905.56
2022-12-18T01:23:42.958Z,100907.00
2022-12-18T01:23:52.683Z,100906.18
2022-12-18T01:24:02.769Z,100905.52
2022-12-18T01:24:12.793Z,100907.59
2022-12-18T01:24:22.719Z,100903.48
2022-12-18T01:24:32.709Z,100907.58
2022-12-18T01:24:42.717Z,100904.30
2022-12-18T01:24:52.820Z,100907.66
2022-12-18T01:25:02.708Z,100905.07
2022-12-18T01:25:12.787Z,100906.50
2022-12-18T01:25:22.688Z,100907.34
2022-12-18T01:25:32.684Z,100909.72
2022-12-18T01:25:42.818Z,100906.92
2022-12-18T01:25:52.728Z,100911.25
2022-12-18T01:26:02.726Z,100912.84
2022-12-18T01:26:12.733Z,100908.14
2022-12-18T01:26:22.744Z,100900.23
2022-12-18T01:26:32.738Z,100908.42
2022-12-18T01:26:42.812Z,100906.30
2022-12-18T01:26:52.758Z,100905.81
2022-12-18T01:27:02.810Z,100908.22
2022-12-18T01:27:12.701Z,100909.48
2022-12-18T01:27:22.764Z,100910.81
2022-12-18T01:27:32.727Z,100911.41
2022-12-18T01:27:42.765Z,100910.48
2022-12-18T01:27:52.739Z,100908.59
2022-12-18T01:28:02.755Z,100912.77
2022-12-18T01:28:12.776Z,100908.72
2022-12-18T01:28:22.704Z,100906.48
2022-12-18T01:28:32.815Z,100905.83
2022-12-18T01:28:42.724Z,100904.55
2022-12-18T01:28:52.790Z,100904.52
2022-12-18T01:29:02.701Z,100906.62
2022-12-18T01:29:12.721Z,100907.57
2022-12-18T01:29:22.711Z,100909.62
2022-12-18T01:29:32.717Z,100910.64
2022-12-18T01:29:42.736Z,100907.55
2022-12-18T01:29:52.688Z,100904.30
2022-12-18T01:30:02.735Z,100907.33
2022-12-18T01:30:12.793Z,100912.98
2022-12-18T01:30:22.725Z,100910.89
2022-12-18T01:30:32.739Z,100907.92
2022-12-18T01:30:42.711Z,100908.13
2022-12-18T01:30:52.755Z,100905.84
2022-12-18T01:31:02.700Z,100900.41
2022-12-18T01:31:12.752Z,100903.14
2022-12-18T01:31:22.837Z,100905.10
2022-12-18T01:31:32.785Z,100901.68
2022-12-18T01:31:42.857Z,100902.19
2022-12-18T01:31:52.800Z,100898.48
2022-12-18T01:32:02.850Z,100900.55
2022-12-18T01:32:12.814Z,100894.91
2022-12-18T01:32:22.686Z,100897.30
2022-12-18T01:32:32.746Z,100904.41
2022-12-18T01:32:42.785Z,100898.91
2022-12-18T01:32:52.740Z,100896.80
2022-12-18T01:33:02.765Z,100900.38
2022-12-18T01:33:12.686Z,100901.02
2022-12-18T01:33:22.768Z,100900.53
2022-12-18T01:33:32.763Z,100900.05
2022-12-18T01:33:42.745Z,100896.37
2022-12-18T01:33:52.766Z,100895.71
2022-12-18T01:34:02.818Z,100902.47
2022-12-18T01:34:12.685Z,100897.64
2022-12-18T01:34:22.743Z,100897.30
2022-12-18T01:34:32.702Z,100905.20
2022-12-18T01:34:42.795Z,100903.08
2022-12-18T01:34:52.778Z,100905.14
2022-12-18T01:35:02.773Z,100898.20
2022-12-18T01:35:12.726Z,100897.81
2022-12-18T01:35:22.736Z,100901.33
2022-12-18T01:35:32.773Z,100898.53
2022-12-18T01:35:42.772Z,100897.87
2022-12-18T01:35:52.692Z,100902.55
2022-12-18T01:36:02.798Z,100900.88
2022-12-18T01:36:12.737Z,100903.28
2022-12-18T01:36:22.808Z,100902.30
2022-12-18T01:36:32.746Z,100898.11
2022-12-18T01:36:42.716Z,100901.77
2022-12-18T01:36:52.723Z,100906.44
2022-12-18T01:37:02.717Z,100904.91
2022-12-18T01:37:12.704Z,100903.44
2022-12-18T01:37:22.694Z,100908.41
2022-12-18T01:37:32.707Z,100904.14
2022-12-18T01:37:42.757Z,100907.55
2022-12-18T01:37:52.705Z,100909.46
2022-12-18T01:38:02.703Z,100901.34
2022-12-18T01:38:12.745Z,100907.63
2022-12-18T01:38:22.761Z,100909.34
2022-12-18T01:38:32.769Z,100905.19
2022-12-18T01:38:42.786Z,100905.61
2022-12-18T01:38:52.786Z,100907.04
2022-12-18T01:39:02.722Z,100907.37
2022-12-18T01:39:12.701Z,100903.45
2022-12-18T01:39:22.719Z,100910.86
2022-12-18T01:39:32.794Z,100904.90
2022-12-18T01:39:42.756Z,100906.95
2022-12-18T01:39:52.689Z,100910.80
2022-12-18T01:40:02.804Z,100908.05
2022-12-18T01:40:12.697Z,100905.30
2022-12-18T01:40:22.751Z,100911.67
2022-12-18T01:40:32.839Z,100911.02
2022-12-18T01:40:42.697Z,100905.64
2022-12-18T01:40:52.750Z,100909.48
2022-12-18T01:41:02.723Z,100905.14
2022-12-18T01:41:12.771Z,100907.20
2022-12-18T01:41:22.761Z,100907.83
2022-12-18T01:41:32.760Z,100908.48
2022-12-18T01:41:42.685Z,100908.94
2022-12-18T01:41:52.699Z,100910.84
2022-12-18T01:42:02.798Z,100910.66
2022-12-18T01:42:12.725Z,100910.84
2022-12-18T01:42:22.763Z,100912.59
2022-12-18T01:42:32.771Z,100914.81
2022-12-18T01:42:42.753Z,100908.53
2022-12-18T01:42:52.737Z,100911.23
2022-12-18T01:43:02.782Z,100913.48
2022-12-18T01:43:12.698Z,100911.52
2022-12-18T01:43:22.745Z,100914.27
2022-12-18T01:43:32.816Z,100909.83
2022-12-18T01:43:42.705Z,100911.12
2022-12-18T01:43:52.749Z,100913.91
2022-12-18T01:44:02.776Z,100912.53
2022-12-18T01:44:12.766Z,100909.76
2022-12-18T01:44:22.755Z,100912.23
2022-12-18T01:44:32.814Z,100909.59
2022-12-18T01:44:42.762Z,100908.62
2022-12-18T01:44:52.805Z,100902.96
2022-12-18T01:45:02.725Z,100913.62
2022-12-18T01:45:12.765Z,100910.55
2022-12-18T01:45:22.814Z,100911.17
2022-12-18T01:45:32.784Z,100912.33
2022-12-18T01:45:42.762Z,100910.50
2022-12-18T01:45:52.829Z,100908.91
2022-12-18T01:46:02.815Z,100913.91
2022-12-18T01:46:12.788Z,100911.80
2022-12-18T01:46:22.794Z,100912.98
2022-12-18T01:46:32.810Z,100914.39
2022-12-18T01:46:42.773Z,100911.02
2022-12-18T01:46:52.801Z,100910.69
2022-12-18T01:47:02.691Z,100913.77
2022-12-18T01:47:12.706Z,100914.25
2022-12-18T01:47:22.746Z,100911.83
2022-12-18T01:47:32.712Z,100910.39
2022-12-18T01:47:42.717Z,100913.60
2022-12-18T01:47:52.729Z,100912.49
2022-12-18T01:48:02.741Z,100913.98
2022-12-18T01:48:12.764Z,100913.34
2022-12-18T01:48:22.696Z,100920.94
2022-12-18T01:48:32.819Z,100914.30
2022-12-18T01:48:42.733Z,100919.96
2022-12-18T01:48:52.768Z,100912.86
2022-12-18T01:49:02.765Z,100912.67
2022-12-18T01:49:12.737Z,100913.80
2022-12-18T01:49:22.684Z,100917.19
2022-12-18T01:49:32.771Z,100918.14
2022-12-18T01:49:42.792Z,100919.00
2022-12-18T01:49:52.792Z,100914.44
2022-12-18T01:50:02.726Z,100914.37
2022-12-18T01:50:12.761Z,100916.33
2022-12-18T01:50:22.753Z,100919.22
2022-12-18T01:50:32.798Z,100918.58
2022-12-18T01:50:42.802Z,100915.34
2022-12-18T01:50:52.809Z,100920.16
2022-12-18T01:51:02.708Z,100921.61
2022-12-18T01:51:12.761Z,100919.95
2022-12-18T01:51:22.757Z,100918.30
2022-12-18T01:51:32.755Z,100925.08
2022-12-18T01:51:42.775Z,100923.62
2022-12-18T01:51:52.756Z,100923.33
2022-12-18T01:52:02.719Z,100919.59
2022-12-18T01:52:12.819Z,100923.35
2022-12-18T01:52:22.733Z,100915.72
2022-12-18T01:52:32.693Z,100916.71
2022-12-18T01:52:42.741Z,100919.79
2022-12-18T01:52:52.788Z,100924.97
2022-12-18T01:53:02.782Z,100917.41
2022-12-18T01:53:12.693Z,100920.76
2022-12-18T01:53:22.743Z,100919.23
2022-12-18T01:53:32.710Z,100919.23
2022-12-18T01:53:42.806Z,100921.84
2022-12-18T01:53:52.698Z,100918.25
2022-12-18T01:54:02.685Z,100918.62
2022-12-18T01:54:12.733Z,100919.43
2022-12-18T01:54:22.787Z,100922.03